createdAt,value
2023-05-17T00:02:20.363Z,0
2023-05-17T00:12:21.241Z,0
2023-05-17T00:22:21.216Z,0
2023-05-17T00:32:21.898Z,0
2023-05-17T00:42:21.651Z,0
2023-05-17T00:52:21.653Z,128.2
2023-05-17T01:02:21.688Z,128.2
2023-05-17T01:12:21.300Z,128.2
2023-05-17T01:22:22.941Z,128.2
2023-05-17T01:32:22.669Z,128.2
2023-05-17T01:42:22.587Z,128.2
2023-05-17T01:52:22.737Z,128.2
2023-05-17T02:02:22.815Z,144.6
2023-05-17T02:12:22.945Z,144.6
2023-05-17T02:22:22.457Z,144.6
2023-05-17T02:32:22.042Z,144.6
2023-05-17T02:42:22.812Z,144.6
2023-05-17T02:52:22.218Z,144.6
2023-05-17T03:02:08.713Z,0
2023-05-17T03:12:08.190Z,0
2023-05-17T03:22:09.073Z,0
2023-05-17T03:32:09.505Z,0
2023-05-17T03:42:10.272Z,0
2023-05-17T03:52:10.952Z,0
2023-05-17T04:02:11.898Z,0
2023-05-17T04:12:20.340Z,0
2023-05-17T04:22:34.904Z,0
2023-05-17T04:32:43.521Z,0
2023-05-17T04:42:58.218Z,0
2023-05-17T04:53:12.015Z,0
2023-05-17T05:03:28.682Z,0
2023-05-17T05:13:44.741Z,0
2023-05-17T05:24:00.754Z,0
2023-05-17T05:34:17.564Z,0
2023-05-17T05:44:34.169Z,0
2023-05-17T05:54:50.066Z,0
2023-05-17T06:05:06.695Z,0
2023-05-17T06:15:23.082Z,0
2023-05-17T06:25:39.427Z,0
2023-05-17T06:35:56.486Z,0
2023-05-17T06:46:10.990Z,0
2023-05-17T06:56:28.158Z,0
2023-05-17T07:06:46.169Z,0
2023-05-17T07:17:02.931Z,0
2023-05-17T07:27:18.066Z,0
2023-05-17T07:37:31.033Z,0
2023-05-17T07:47:45.306Z,0
2023-05-17T07:57:58.264Z,0
2023-05-17T08:08:11.694Z,0
2023-05-17T08:18:24.350Z,0
2023-05-17T08:28:37.938Z,0
2023-05-17T08:38:50.834Z,0
2023-05-17T08:49:03.902Z,0
2023-05-17T08:59:16.830Z,0
2023-05-17T09:02:10.885Z,0
2023-05-17T09:12:25.715Z,0
2023-05-17T09:22:42.804Z,98.1
2023-05-17T09:33:03.342Z,98.3
2023-05-17T09:43:23.000Z,99.2
2023-05-17T09:53:42.494Z,99.4
2023-05-17T10:04:02.716Z,99.2
2023-05-17T10:14:23.530Z,98.7
2023-05-17T10:24:39.884Z,98.8
2023-05-17T10:34:51.890Z,98.8
2023-05-17T10:44:52.146Z,98.8
2023-05-17T10:54:59.061Z,98.8
2023-05-17T11:05:07.908Z,98.8
2023-05-17T11:15:18.599Z,98.8
2023-05-17T11:25:29.559Z,98.8
2023-05-17T11:35:40.570Z,98.8
2023-05-17T11:45:48.525Z,98.8
2023-05-17T11:55:52.962Z,98.8
2023-05-17T12:05:57.292Z,98.8
2023-05-17T12:16:02.109Z,98.8
2023-05-17T12:26:08.433Z,98.8
2023-05-17T12:36:13.220Z,98.8
2023-05-17T12:46:17.469Z,98.8
2023-05-17T12:56:24.028Z,98.8
2023-05-17T13:06:31.546Z,98.8
2023-05-17T13:16:37.863Z,98.8
2023-05-17T13:26:45.911Z,98.8
2023-05-17T13:36:55.578Z,98.8
2023-05-17T13:47:01.668Z,98.8
2023-05-17T13:57:07.722Z,98.8
2023-05-17T14:07:12.134Z,98.8
2023-05-17T14:17:14.625Z,98.8
2023-05-17T14:27:14.885Z,98.8
2023-05-17T14:37:15.397Z,98.8
2023-05-17T14:47:16.277Z,98.8
2023-05-17T14:57:17.116Z,98.8
2023-05-17T15:02:07.413Z,0
2023-05-17T15:12:07.900Z,0
2023-05-17T15:22:08.343Z,0
2023-05-17T15:32:09.046Z,0
2023-05-17T15:42:09.865Z,0
2023-05-17T15:52:09.245Z,0
2023-05-17T16:02:10.313Z,0
2023-05-17T16:12:11.664Z,0
2023-05-17T16:22:14.211Z,0
2023-05-17T16:32:16.007Z,0
2023-05-17T16:42:16.855Z,0
2023-05-17T16:52:18.838Z,0
2023-05-17T17:02:18.773Z,0
2023-05-17T17:12:24.496Z,0
2023-05-17T17:22:19.134Z,0
2023-05-17T17:32:18.712Z,0
2023-05-17T17:42:18.639Z,0
2023-05-17T17:52:18.566Z,0
2023-05-17T18:02:18.591Z,0
2023-05-17T18:12:18.481Z,0
2023-05-17T18:22:19.160Z,0
2023-05-17T18:32:19.362Z,0
2023-05-17T18:42:19.256Z,0
2023-05-17T18:52:18.750Z,0
2023-05-17T19:02:18.970Z,0
2023-05-17T19:12:19.789Z,0
2023-05-17T19:22:19.542Z,0
2023-05-17T19:32:19.845Z,0
2023-05-17T19:42:20.622Z,0
2023-05-17T19:52:20.510Z,0
2023-05-17T20:02:20.345Z,0
2023-05-17T20:12:20.293Z,0
2023-05-17T20:22:20.851Z,0
2023-05-17T20:32:20.733Z,0
2023-05-17T20:42:20.881Z,0
2023-05-17T20:52:37.895Z,0
2023-05-17T21:02:09.093Z,0
2023-05-17T21:12:08.992Z,0
2023-05-17T21:22:09.141Z,0
2023-05-17T21:32:10.500Z,0
2023-05-17T21:42:11.547Z,513.3
2023-05-17T21:52:09.865Z,513.3
2023-05-17T22:02:09.727Z,513.3
2023-05-17T22:12:11.105Z,513.3
2023-05-17T22:22:12.009Z,513.3
2023-05-17T22:32:13.255Z,513.3
2023-05-17T22:42:14.374Z,513.3
2023-05-17T22:52:15.508Z,513.3
2023-05-17T23:02:16.302Z,513.3
2023-05-17T23:12:16.633Z,513.3
2023-05-17T23:22:17.256Z,513.3
2023-05-17T23:32:16.747Z,513.3
2023-05-17T23:42:15.955Z,513.3
2023-05-17T23:52:16.886Z,513.3
